sensor_id;sensor_type;location;lat;lon;timestamp;pressure;altitude;pressure_sealevel;temperature;humidity
54876;BME280;40764;48.472;8.166;2023-07-02T00:02:32;97703.41;;;17.67;100.00
54876;BME280;40764;48.472;8.166;2023-07-02T00:08:32;97704.31;;;17.43;100.00
54876;BME280;40764;48.472;8.166;2023-07-02T00:14:32;97692.72;;;17.65;100.00
54876;BME280;40764;48.472;8.166;2023-07-02T00:20:33;97699.34;;;17.48;100.00
54876;BME280;40764;48.472;8.166;2023-07-02T00:26:38;97704.72;;;17.29;100.00
54876;BME280;40764;48.472;8.166;2023-07-02T00:32:38;97706.19;;;17.39;100.00
54876;BME280;40764;48.472;8.166;2023-07-02T00:38:39;97703.78;;;17.37;100.00
54876;BME280;40764;48.472;8.166;2023-07-02T00:44:39;97695.94;;;17.11;100.00
54876;BME280;40764;48.472;8.166;2023-07-02T00:50:40;97706.53;;;17.09;100.00
54876;BME280;40764;48.472;8.166;2023-07-02T00:56:41;97704.25;;;17.27;100.00
54876;BME280;40764;48.472;8.166;2023-07-02T01:02:41;97700.28;;;17.12;100.00
54876;BME280;40764;48.472;8.166;2023-07-02T01:08:45;97698.53;;;17.20;100.00
54876;BME280;40764;48.472;8.166;2023-07-02T01:14:48;97692.06;;;17.28;100.00
54876;BME280;40764;48.472;8.166;2023-07-02T01:20:50;97695.06;;;17.23;100.00
54876;BME280;40764;48.472;8.166;2023-07-02T01:26:53;97697.69;;;17.31;100.00
54876;BME280;40764;48.472;8.166;2023-07-02T01:32:55;97701.16;;;17.28;100.00
54876;BME280;40764;48.472;8.166;2023-07-02T01:38:56;97699.78;;;17.22;100.00
54876;BME280;40764;48.472;8.166;2023-07-02T01:44:56;97694.38;;;17.26;100.00
54876;BME280;40764;48.472;8.166;2023-07-02T01:50:56;97695.72;;;17.32;100.00
54876;BME280;40764;48.472;8.166;2023-07-02T01:56:57;97706.22;;;17.54;100.00
54876;BME280;40764;48.472;8.166;2023-07-02T02:02:58;97715.22;;;17.51;100.00
54876;BME280;40764;48.472;8.166;2023-07-02T02:08:59;97712.19;;;17.56;100.00
54876;BME280;40764;48.472;8.166;2023-07-02T02:14:59;97713.69;;;17.54;100.00
54876;BME280;40764;48.472;8.166;2023-07-02T02:21:00;97740.28;;;17.58;100.00
54876;BME280;40764;48.472;8.166;2023-07-02T02:27:00;97755.44;;;16.96;100.00
54876;BME280;40764;48.472;8.166;2023-07-02T02:33:00;97751.19;;;16.75;100.00
54876;BME280;40764;48.472;8.166;2023-07-02T02:39:01;97766.72;;;16.67;100.00
54876;BME280;40764;48.472;8.166;2023-07-02T02:45:01;97786.09;;;16.34;100.00
54876;BME280;40764;48.472;8.166;2023-07-02T02:51:02;97793.34;;;16.38;100.00
54876;BME280;40764;48.472;8.166;2023-07-02T02:57:02;97801.38;;;16.31;100.00
54876;BME280;40764;48.472;8.166;2023-07-02T03:03:02;97799.38;;;16.07;100.00
54876;BME280;40764;48.472;8.166;2023-07-02T03:09:03;97801.22;;;16.03;100.00
54876;BME280;40764;48.472;8.166;2023-07-02T03:15:03;97812.78;;;15.97;100.00
54876;BME280;40764;48.472;8.166;2023-07-02T03:21:04;97811.44;;;16.15;100.00
54876;BME280;40764;48.472;8.166;2023-07-02T03:27:05;97814.13;;;16.24;100.00
54876;BME280;40764;48.472;8.166;2023-07-02T03:33:05;97812.00;;;15.96;100.00
54876;BME280;40764;48.472;8.166;2023-07-02T03:39:05;97816.69;;;15.96;100.00
54876;BME280;40764;48.472;8.166;2023-07-02T03:45:06;97814.34;;;15.86;100.00
54876;BME280;40764;48.472;8.166;2023-07-02T03:51:07;97816.97;;;16.15;100.00
54876;BME280;40764;48.472;8.166;2023-07-02T03:57:07;97833.47;;;16.03;100.00
54876;BME280;40764;48.472;8.166;2023-07-02T04:03:07;97831.53;;;15.70;100.00
54876;BME280;40764;48.472;8.166;2023-07-02T04:09:08;97847.72;;;15.72;100.00
54876;BME280;40764;48.472;8.166;2023-07-02T04:15:08;97840.63;;;15.83;100.00
54876;BME280;40764;48.472;8.166;2023-07-02T04:21:09;97857.28;;;15.87;100.00
54876;BME280;40764;48.472;8.166;2023-07-02T04:27:09;97867.94;;;15.97;100.00
54876;BME280;40764;48.472;8.166;2023-07-02T04:33:11;97867.50;;;15.86;100.00
54876;BME280;40764;48.472;8.166;2023-07-02T04:39:14;97873.69;;;15.83;100.00
54876;BME280;40764;48.472;8.166;2023-07-02T04:45:15;97869.66;;;16.01;100.00
54876;BME280;40764;48.472;8.166;2023-07-02T04:51:16;97865.28;;;16.00;100.00
54876;BME280;40764;48.472;8.166;2023-07-02T04:57:16;97878.50;;;16.28;100.00
54876;BME280;40764;48.472;8.166;2023-07-02T05:03:17;97881.00;;;16.21;100.00
54876;BME280;40764;48.472;8.166;2023-07-02T05:09:17;97893.59;;;16.09;100.00
54876;BME280;40764;48.472;8.166;2023-07-02T05:15:17;97888.78;;;16.19;100.00
54876;BME280;40764;48.472;8.166;2023-07-02T05:21:18;97902.78;;;16.47;100.00
54876;BME280;40764;48.472;8.166;2023-07-02T05:27:18;97903.63;;;16.59;100.00
54876;BME280;40764;48.472;8.166;2023-07-02T05:33:19;97907.25;;;16.39;100.00
54876;BME280;40764;48.472;8.166;2023-07-02T05:39:20;97902.47;;;16.60;100.00
54876;BME280;40764;48.472;8.166;2023-07-02T05:45:21;97907.75;;;16.53;100.00
54876;BME280;40764;48.472;8.166;2023-07-02T05:51:24;97906.84;;;17.07;100.00
54876;BME280;40764;48.472;8.166;2023-07-02T05:57:24;97910.72;;;17.18;100.00
54876;BME280;40764;48.472;8.166;2023-07-02T06:03:24;97904.75;;;17.40;100.00
54876;BME280;40764;48.472;8.166;2023-07-02T06:09:25;97920.16;;;17.29;100.00
54876;BME280;40764;48.472;8.166;2023-07-02T06:15:25;97925.94;;;17.36;100.00
54876;BME280;40764;48.472;8.166;2023-07-02T06:21:25;97923.94;;;17.49;100.00
54876;BME280;40764;48.472;8.166;2023-07-02T06:27:29;97933.50;;;17.51;100.00
54876;BME280;40764;48.472;8.166;2023-07-02T06:33:30;97931.91;;;17.50;100.00
54876;BME280;40764;48.472;8.166;2023-07-02T06:39:30;97938.88;;;17.84;100.00
54876;BME280;40764;48.472;8.166;2023-07-02T06:45:30;97946.88;;;17.74;100.00
54876;BME280;40764;48.472;8.166;2023-07-02T06:51:31;97942.69;;;17.80;100.00
54876;BME280;40764;48.472;8.166;2023-07-02T06:57:31;97945.31;;;18.01;100.00
54876;BME280;40764;48.472;8.166;2023-07-02T07:03:31;97942.38;;;18.21;100.00
54876;BME280;40764;48.472;8.166;2023-07-02T07:09:32;97934.00;;;18.06;100.00
54876;BME280;40764;48.472;8.166;2023-07-02T07:15:33;97945.25;;;18.13;100.00
54876;BME280;40764;48.472;8.166;2023-07-02T07:21:37;97934.66;;;18.15;100.00
54876;BME280;40764;48.472;8.166;2023-07-02T07:27:37;97944.47;;;18.12;100.00
54876;BME280;40764;48.472;8.166;2023-07-02T07:33:37;97946.91;;;18.02;100.00
54876;BME280;40764;48.472;8.166;2023-07-02T07:39:38;97940.59;;;18.29;100.00
54876;BME280;40764;48.472;8.166;2023-07-02T07:45:38;97937.47;;;18.03;100.00
54876;BME280;40764;48.472;8.166;2023-07-02T07:51:38;97935.31;;;18.24;100.00
54876;BME280;40764;48.472;8.166;2023-07-02T07:57:39;97941.03;;;18.59;97.52
54876;BME280;40764;48.472;8.166;2023-07-02T08:03:39;97936.94;;;19.12;94.54
54876;BME280;40764;48.472;8.166;2023-07-02T08:09:39;97924.59;;;19.26;88.16
54876;BME280;40764;48.472;8.166;2023-07-02T08:15:40;97933.34;;;19.28;84.88
54876;BME280;40764;48.472;8.166;2023-07-02T08:21:40;97934.34;;;19.19;84.89
54876;BME280;40764;48.472;8.166;2023-07-02T08:27:40;97936.19;;;19.31;84.11
54876;BME280;40764;48.472;8.166;2023-07-02T08:33:41;97938.69;;;19.36;82.31
54876;BME280;40764;48.472;8.166;2023-07-02T08:39:41;97934.66;;;19.34;72.90
54876;BME280;40764;48.472;8.166;2023-07-02T08:45:42;97941.38;;;19.33;73.40
54876;BME280;40764;48.472;8.166;2023-07-02T08:51:46;97939.16;;;19.23;70.29
54876;BME280;40764;48.472;8.166;2023-07-02T08:57:49;97936.28;;;19.35;65.70
54876;BME280;40764;48.472;8.166;2023-07-02T09:03:50;97933.16;;;19.87;67.07
54876;BME280;40764;48.472;8.166;2023-07-02T09:09:50;97947.72;;;20.19;67.83
54876;BME280;40764;48.472;8.166;2023-07-02T09:15:51;97942.25;;;20.03;67.13
54876;BME280;40764;48.472;8.166;2023-07-02T09:21:51;97938.28;;;19.85;65.08
54876;BME280;40764;48.472;8.166;2023-07-02T09:27:52;97947.00;;;20.03;61.57
54876;BME280;40764;48.472;8.166;2023-07-02T09:34:01;97940.16;;;20.55;58.94
54876;BME280;40764;48.472;8.166;2023-07-02T09:40:02;97932.06;;;20.88;58.68
54876;BME280;40764;48.472;8.166;2023-07-02T09:46:06;97933.06;;;20.80;55.67
54876;BME280;40764;48.472;8.166;2023-07-02T09:52:09;97924.31;;;20.78;56.33
54876;BME280;40764;48.472;8.166;2023-07-02T09:58:10;97933.00;;;20.77;55.69
54876;BME280;40764;48.472;8.166;2023-07-02T10:04:13;97929.44;;;20.76;55.77
54876;BME280;40764;48.472;8.166;2023-07-02T10:10:25;97924.88;;;21.10;53.83
54876;BME280;40764;48.472;8.166;2023-07-02T10:16:26;97929.78;;;20.94;56.50
54876;BME280;40764;48.472;8.166;2023-07-02T10:22:42;97918.59;;;20.90;51.35
54876;BME280;40764;48.472;8.166;2023-07-02T10:28:42;97936.72;;;21.26;51.79
54876;BME280;40764;48.472;8.166;2023-07-02T10:34:43;97903.56;;;21.67;50.46
54876;BME280;40764;48.472;8.166;2023-07-02T10:40:44;97933.59;;;21.31;47.81
54876;BME280;40764;48.472;8.166;2023-07-02T10:46:48;97921.50;;;21.70;47.41
54876;BME280;40764;48.472;8.166;2023-07-02T10:52:49;97910.97;;;22.12;45.36
54876;BME280;40764;48.472;8.166;2023-07-02T10:58:52;97930.28;;;22.02;43.80
54876;BME280;40764;48.472;8.166;2023-07-02T11:04:53;97926.34;;;22.03;44.43
54876;BME280;40764;48.472;8.166;2023-07-02T11:11:09;97913.59;;;22.02;45.56
54876;BME280;40764;48.472;8.166;2023-07-02T11:17:10;97914.63;;;22.53;44.71
54876;BME280;40764;48.472;8.166;2023-07-02T11:23:23;97911.28;;;22.04;42.63
54876;BME280;40764;48.472;8.166;2023-07-02T11:29:24;97907.81;;;22.47;42.86
54876;BME280;40764;48.472;8.166;2023-07-02T11:35:34;97899.31;;;23.11;40.79
54876;BME280;40764;48.472;8.166;2023-07-02T11:41:39;97899.78;;;22.79;41.12
54876;BME280;40764;48.472;8.166;2023-07-02T11:47:40;97895.94;;;23.39;40.13
54876;BME280;40764;48.472;8.166;2023-07-02T11:53:40;97897.38;;;22.78;41.12
54876;BME280;40764;48.472;8.166;2023-07-02T11:59:41;97889.44;;;23.21;40.70
54876;BME280;40764;48.472;8.166;2023-07-02T12:05:42;97880.06;;;23.43;41.38
54876;BME280;40764;48.472;8.166;2023-07-02T12:11:42;97881.19;;;23.35;41.03
54876;BME280;40764;48.472;8.166;2023-07-02T12:17:45;97876.59;;;22.68;41.56
54876;BME280;40764;48.472;8.166;2023-07-02T12:23:46;97881.25;;;23.42;41.69
54876;BME280;40764;48.472;8.166;2023-07-02T12:29:46;97864.38;;;23.24;43.25
54876;BME280;40764;48.472;8.166;2023-07-02T12:35:48;97868.59;;;23.04;44.42
54876;BME280;40764;48.472;8.166;2023-07-02T12:41:49;97862.16;;;23.44;45.13
54876;BME280;40764;48.472;8.166;2023-07-02T12:47:49;97876.03;;;23.37;46.23
54876;BME280;40764;48.472;8.166;2023-07-02T12:53:49;97871.91;;;22.76;47.93
54876;BME280;40764;48.472;8.166;2023-07-02T12:59:50;97870.31;;;23.15;47.77
54876;BME280;40764;48.472;8.166;2023-07-02T13:05:50;97865.56;;;23.20;47.73
54876;BME280;40764;48.472;8.166;2023-07-02T13:11:50;97860.38;;;23.80;43.69
54876;BME280;40764;48.472;8.166;2023-07-02T13:17:51;97862.38;;;23.76;46.32
54876;BME280;40764;48.472;8.166;2023-07-02T13:23:51;97874.41;;;23.98;44.83
54876;BME280;40764;48.472;8.166;2023-07-02T13:29:51;97870.94;;;24.22;44.38
54876;BME280;40764;48.472;8.166;2023-07-02T13:35:52;97878.88;;;24.13;42.85
54876;BME280;40764;48.472;8.166;2023-07-02T13:41:52;97864.13;;;24.16;42.90
54876;BME280;40764;48.472;8.166;2023-07-02T13:47:52;97856.78;;;25.23;38.79
54876;BME280;40764;48.472;8.166;2023-07-02T13:53:53;97882.97;;;26.18;37.16
54876;BME280;40764;48.472;8.166;2023-07-02T13:59:53;97859.97;;;25.29;38.23
54876;BME280;40764;48.472;8.166;2023-07-02T14:05:53;97871.06;;;25.89;34.87
54876;BME280;40764;48.472;8.166;2023-07-02T14:11:54;97882.63;;;26.06;34.30
54876;BME280;40764;48.472;8.166;2023-07-02T14:17:54;97869.81;;;26.12;34.13
54876;BME280;40764;48.472;8.166;2023-07-02T14:23:54;97881.78;;;26.19;33.28
54876;BME280;40764;48.472;8.166;2023-07-02T14:29:55;97870.44;;;26.51;32.36
54876;BME280;40764;48.472;8.166;2023-07-02T14:35:56;97875.50;;;25.87;34.03
54876;BME280;40764;48.472;8.166;2023-07-02T14:41:57;97866.09;;;27.06;32.48
54876;BME280;40764;48.472;8.166;2023-07-02T14:47:57;97869.59;;;27.21;32.06
54876;BME280;40764;48.472;8.166;2023-07-02T14:54:00;97870.84;;;27.12;32.19
54876;BME280;40764;48.472;8.166;2023-07-02T15:00:04;97851.03;;;27.75;31.86
54876;BME280;40764;48.472;8.166;2023-07-02T15:06:05;97847.28;;;28.23;33.05
54876;BME280;40764;48.472;8.166;2023-07-02T15:12:05;97854.25;;;28.11;31.61
54876;BME280;40764;48.472;8.166;2023-07-02T15:18:07;97853.28;;;28.25;29.91
54876;BME280;40764;48.472;8.166;2023-07-02T15:24:07;97852.66;;;28.10;30.45
54876;BME280;40764;48.472;8.166;2023-07-02T15:30:10;97864.16;;;26.96;31.71
54876;BME280;40764;48.472;8.166;2023-07-02T15:36:11;97859.94;;;27.25;31.46
54876;BME280;40764;48.472;8.166;2023-07-02T15:42:11;97850.06;;;27.06;31.39
54876;BME280;40764;48.472;8.166;2023-07-02T15:48:12;97854.03;;;27.12;32.29
54876;BME280;40764;48.472;8.166;2023-07-02T15:54:12;97855.28;;;28.55;30.70
54876;BME280;40764;48.472;8.166;2023-07-02T16:00:13;97877.16;;;27.72;30.13
54876;BME280;40764;48.472;8.166;2023-07-02T16:06:14;97869.59;;;26.62;32.25
54876;BME280;40764;48.472;8.166;2023-07-02T16:12:15;97869.50;;;26.72;32.05
54876;BME280;40764;48.472;8.166;2023-07-02T16:18:15;97855.84;;;27.78;30.91
54876;BME280;40764;48.472;8.166;2023-07-02T16:30:18;97872.56;;;27.48;29.93
54876;BME280;40764;48.472;8.166;2023-07-02T16:36:18;97850.69;;;28.07;30.23
54876;BME280;40764;48.472;8.166;2023-07-02T16:42:19;97861.78;;;27.84;30.47
54876;BME280;40764;48.472;8.166;2023-07-02T16:48:20;97858.94;;;28.52;29.11
54876;BME280;40764;48.472;8.166;2023-07-02T16:54:23;97864.84;;;28.61;29.20
54876;BME280;40764;48.472;8.166;2023-07-02T17:00:23;97858.13;;;29.09;29.19
54876;BME280;40764;48.472;8.166;2023-07-02T17:06:24;97857.75;;;28.80;30.23
54876;BME280;40764;48.472;8.166;2023-07-02T17:12:25;97860.63;;;29.03;30.01
54876;BME280;40764;48.472;8.166;2023-07-02T17:18:25;97848.66;;;28.42;29.88
54876;BME280;40764;48.472;8.166;2023-07-02T17:24:29;97856.16;;;29.06;29.41
54876;BME280;40764;48.472;8.166;2023-07-02T17:30:30;97855.34;;;28.78;29.59
54876;BME280;40764;48.472;8.166;2023-07-02T17:36:30;97851.56;;;29.15;29.58
54876;BME280;40764;48.472;8.166;2023-07-02T17:42:31;97851.00;;;28.74;29.30
54876;BME280;40764;48.472;8.166;2023-07-02T17:48:32;97858.13;;;28.82;28.96
54876;BME280;40764;48.472;8.166;2023-07-02T17:54:33;97859.41;;;27.82;29.66
54876;BME280;40764;48.472;8.166;2023-07-02T18:00:34;97853.00;;;28.46;28.86
54876;BME280;40764;48.472;8.166;2023-07-02T18:06:35;97848.72;;;27.66;30.11
54876;BME280;40764;48.472;8.166;2023-07-02T18:12:35;97849.97;;;26.62;31.78
54876;BME280;40764;48.472;8.166;2023-07-02T18:18:35;97853.38;;;26.17;33.20
54876;BME280;40764;48.472;8.166;2023-07-02T18:24:40;97850.72;;;25.71;34.65
54876;BME280;40764;48.472;8.166;2023-07-02T18:30:45;97858.47;;;27.55;31.51
54876;BME280;40764;48.472;8.166;2023-07-02T18:36:48;97852.66;;;26.79;34.89
54876;BME280;40764;48.472;8.166;2023-07-02T18:42:48;97870.50;;;27.07;34.51
54876;BME280;40764;48.472;8.166;2023-07-02T18:48:49;97883.00;;;26.92;33.07
54876;BME280;40764;48.472;8.166;2023-07-02T18:54:49;97881.13;;;25.69;34.55
54876;BME280;40764;48.472;8.166;2023-07-02T19:00:50;97885.38;;;24.35;36.52
54876;BME280;40764;48.472;8.166;2023-07-02T19:06:50;97890.69;;;23.78;37.97
54876;BME280;40764;48.472;8.166;2023-07-02T19:12:50;97905.03;;;23.29;38.68
54876;BME280;40764;48.472;8.166;2023-07-02T19:18:51;97903.94;;;22.93;39.65
54876;BME280;40764;48.472;8.166;2023-07-02T19:24:51;97913.91;;;22.56;40.74
54876;BME280;40764;48.472;8.166;2023-07-02T19:30:52;97918.75;;;22.30;41.60
54876;BME280;40764;48.472;8.166;2023-07-02T19:36:56;97932.53;;;21.92;42.73
54876;BME280;40764;48.472;8.166;2023-07-02T19:42:57;97933.06;;;21.72;43.43
54876;BME280;40764;48.472;8.166;2023-07-02T19:48:57;97947.44;;;21.51;44.65
54876;BME280;40764;48.472;8.166;2023-07-02T19:55:04;97957.75;;;20.82;51.43
54876;BME280;40764;48.472;8.166;2023-07-02T20:01:09;97965.63;;;19.87;57.03
54876;BME280;40764;48.472;8.166;2023-07-02T20:07:12;97978.56;;;19.32;58.66
54876;BME280;40764;48.472;8.166;2023-07-02T20:13:12;97982.47;;;18.99;60.52
54876;BME280;40764;48.472;8.166;2023-07-02T20:19:12;97988.25;;;18.78;61.98
54876;BME280;40764;48.472;8.166;2023-07-02T20:25:13;97993.06;;;18.66;63.04
54876;BME280;40764;48.472;8.166;2023-07-02T20:31:14;97999.78;;;18.12;64.76
54876;BME280;40764;48.472;8.166;2023-07-02T20:37:19;98010.41;;;17.86;67.46
54876;BME280;40764;48.472;8.166;2023-07-02T20:43:20;98009.84;;;17.80;68.04
54876;BME280;40764;48.472;8.166;2023-07-02T20:49:21;98009.03;;;17.55;68.64
54876;BME280;40764;48.472;8.166;2023-07-02T20:55:21;98015.09;;;17.24;70.31
54876;BME280;40764;48.472;8.166;2023-07-02T21:01:22;98020.50;;;17.09;71.82
54876;BME280;40764;48.472;8.166;2023-07-02T21:07:24;98030.19;;;17.27;71.41
54876;BME280;40764;48.472;8.166;2023-07-02T21:13:25;98036.41;;;17.24;73.40
54876;BME280;40764;48.472;8.166;2023-07-02T21:19:25;98038.47;;;17.27;73.25
54876;BME280;40764;48.472;8.166;2023-07-02T21:25:27;98035.59;;;17.23;72.79
54876;BME280;40764;48.472;8.166;2023-07-02T21:31:28;98040.19;;;17.19;72.69
54876;BME280;40764;48.472;8.166;2023-07-02T21:37:28;98042.63;;;17.21;72.28
54876;BME280;40764;48.472;8.166;2023-07-02T21:43:29;98035.75;;;16.94;74.25
54876;BME280;40764;48.472;8.166;2023-07-02T21:49:29;98043.53;;;16.80;75.11
54876;BME280;40764;48.472;8.166;2023-07-02T21:55:30;98048.13;;;16.55;77.69
54876;BME280;40764;48.472;8.166;2023-07-02T22:01:33;98049.19;;;16.41;78.36
54876;BME280;40764;48.472;8.166;2023-07-02T22:07:33;98051.75;;;16.47;78.48
54876;BME280;40764;48.472;8.166;2023-07-02T22:13:34;98053.09;;;16.40;78.39
54876;BME280;40764;48.472;8.166;2023-07-02T22:19:34;98046.09;;;16.43;76.94
54876;BME280;40764;48.472;8.166;2023-07-02T22:25:35;98048.03;;;16.42;76.68
54876;BME280;40764;48.472;8.166;2023-07-02T22:31:38;98056.72;;;16.11;79.79
54876;BME280;40764;48.472;8.166;2023-07-02T22:37:38;98056.03;;;15.94;81.40
54876;BME280;40764;48.472;8.166;2023-07-02T22:43:39;98054.69;;;16.00;81.26
54876;BME280;40764;48.472;8.166;2023-07-02T22:49:40;98049.69;;;16.23;80.16
54876;BME280;40764;48.472;8.166;2023-07-02T22:55:41;98047.09;;;16.18;81.41
54876;BME280;40764;48.472;8.166;2023-07-02T23:01:41;98053.13;;;16.20;80.34
54876;BME280;40764;48.472;8.166;2023-07-02T23:07:42;98051.75;;;16.05;80.15
54876;BME280;40764;48.472;8.166;2023-07-02T23:13:46;98046.16;;;15.93;81.79
54876;BME280;40764;48.472;8.166;2023-07-02T23:19:46;98034.53;;;16.08;82.06
54876;BME280;40764;48.472;8.166;2023-07-02T23:25:47;98030.63;;;16.09;81.40
54876;BME280;40764;48.472;8.166;2023-07-02T23:31:48;98034.22;;;15.80;82.55
54876;BME280;40764;48.472;8.166;2023-07-02T23:37:48;98031.66;;;15.75;82.93
54876;BME280;40764;48.472;8.166;2023-07-02T23:43:56;98030.13;;;15.86;82.30
54876;BME280;40764;48.472;8.166;2023-07-02T23:49:56;98030.75;;;15.92;80.80
54876;BME280;40764;48.472;8.166;2023-07-02T23:55:57;98032.84;;;15.95;82.30
